createdAt,value
2023-03-20T00:01:24.104Z,9.44
2023-03-20T00:03:52.252Z,9.40
2023-03-20T00:06:23.268Z,9.34
2023-03-20T00:08:55.021Z,9.30
2023-03-20T00:11:31.102Z,9.31
2023-03-20T00:14:11.630Z,9.26
2023-03-20T00:16:42.980Z,9.23
2023-03-20T00:19:29.295Z,9.22
2023-03-20T00:21:57.136Z,9.29
2023-03-20T00:24:25.466Z,9.32
2023-03-20T00:26:54.784Z,9.28
2023-03-20T00:29:30.879Z,9.24
2023-03-20T00:31:58.938Z,9.28
2023-03-20T00:34:32.557Z,9.31
2023-03-20T00:37:00.088Z,9.24
2023-03-20T00:39:27.095Z,9.19
2023-03-20T00:42:02.356Z,9.24
2023-03-20T00:44:49.288Z,9.10
2023-03-20T00:47:23.271Z,9.03
2023-03-20T00:49:53.360Z,9.07
2023-03-20T00:52:22.386Z,9.02
2023-03-20T00:54:49.242Z,9.04
2023-03-20T00:57:30.829Z,9.03
2023-03-20T01:00:12.736Z,9.04
2023-03-20T01:02:39.601Z,9.05
2023-03-20T01:05:07.598Z,9.07
2023-03-20T01:07:34.493Z,9.12
2023-03-20T01:10:01.371Z,9.22
2023-03-20T01:12:28.235Z,9.18
2023-03-20T01:14:58.440Z,9.16
2023-03-20T01:17:31.466Z,9.16
2023-03-20T01:19:58.197Z,9.09
2023-03-20T01:22:25.384Z,9.08
2023-03-20T01:24:52.220Z,9.09
2023-03-20T01:27:21.580Z,9.01
2023-03-20T01:29:48.872Z,9.06
2023-03-20T01:32:19.789Z,9.17
2023-03-20T01:34:49.276Z,9.20
2023-03-20T01:37:27.714Z,9.26
2023-03-20T01:39:56.787Z,9.24
2023-03-20T01:42:24.991Z,9.28
2023-03-20T01:44:52.978Z,9.34
2023-03-20T01:47:32.187Z,9.30
2023-03-20T01:50:31.997Z,9.24
2023-03-20T01:53:25.367Z,9.27
2023-03-20T01:55:57.753Z,9.28
2023-03-20T01:58:37.123Z,9.25
2023-03-20T02:01:08.419Z,9.28
2023-03-20T02:03:35.383Z,9.27
2023-03-20T02:06:02.507Z,9.16
2023-03-20T02:08:32.377Z,9.14
2023-03-20T02:11:02.317Z,9.05
2023-03-20T02:13:31.436Z,8.93
2023-03-20T02:16:02.767Z,8.91
2023-03-20T02:18:32.005Z,8.97
2023-03-20T02:21:26.583Z,8.90
2023-03-20T02:24:27.269Z,8.89
2023-03-20T02:27:22.139Z,8.87
2023-03-20T02:30:06.240Z,8.79
2023-03-20T02:33:02.777Z,8.77
2023-03-20T02:36:00.829Z,8.80
2023-03-20T02:39:24.339Z,8.80
2023-03-20T02:41:59.900Z,8.81
2023-03-20T02:44:32.587Z,8.94
2023-03-20T02:47:32.271Z,8.96
2023-03-20T02:50:16.879Z,8.98
2023-03-20T02:53:06.557Z,9.02
2023-03-20T02:55:53.470Z,9.04
2023-03-20T02:58:46.051Z,9.10
2023-03-20T03:01:26.422Z,9.13
2023-03-20T03:04:02.075Z,9.18
2023-03-20T03:06:32.553Z,9.13
2023-03-20T03:09:17.926Z,9.04
2023-03-20T03:11:57.745Z,8.98
2023-03-20T03:14:41.439Z,8.91
2023-03-20T03:17:12.423Z,8.87
2023-03-20T03:19:46.316Z,8.96
2023-03-20T03:22:13.699Z,8.97
2023-03-20T03:24:49.532Z,8.96
2023-03-20T03:27:23.788Z,9.01
2023-03-20T03:30:07.800Z,8.98
2023-03-20T03:32:45.510Z,8.99
2023-03-20T03:35:20.571Z,8.98
2023-03-20T03:38:27.003Z,8.89
2023-03-20T03:41:22.340Z,8.93
2023-03-20T03:44:06.568Z,8.94
2023-03-20T03:46:46.856Z,9.01
2023-03-20T03:49:24.074Z,9.02
2023-03-20T03:52:01.936Z,9.00
2023-03-20T03:54:45.939Z,9.03
2023-03-20T03:57:17.917Z,9.01
2023-03-20T03:59:51.001Z,8.97
2023-03-20T04:02:21.492Z,8.89
2023-03-20T04:04:52.818Z,8.83
2023-03-20T04:07:20.183Z,8.82
2023-03-20T04:09:47.436Z,8.75
2023-03-20T04:12:34.720Z,8.74
2023-03-20T04:15:03.426Z,8.72
2023-03-20T04:17:31.267Z,8.78
2023-03-20T04:19:58.430Z,8.87
2023-03-20T04:22:25.598Z,8.97
2023-03-20T04:24:52.802Z,8.98
2023-03-20T04:27:19.746Z,8.99
2023-03-20T04:29:46.702Z,8.99
2023-03-20T04:32:13.602Z,9.00
2023-03-20T04:34:42.901Z,8.95
2023-03-20T04:37:10.077Z,8.90
2023-03-20T04:39:37.363Z,8.88
2023-03-20T04:42:05.912Z,8.84
2023-03-20T04:44:32.768Z,8.82
2023-03-20T04:46:59.739Z,8.81
2023-03-20T04:49:26.836Z,8.80
2023-03-20T04:51:54.486Z,8.75
2023-03-20T04:54:21.404Z,8.69
2023-03-20T04:56:48.247Z,8.73
2023-03-20T04:59:15.279Z,8.74
2023-03-20T05:01:42.108Z,8.69
2023-03-20T05:04:08.990Z,8.60
2023-03-20T05:06:38.456Z,8.56
2023-03-20T05:09:05.746Z,8.57
2023-03-20T05:11:32.552Z,8.55
2023-03-20T05:13:59.322Z,8.51
2023-03-20T05:16:26.531Z,8.44
2023-03-20T05:18:53.578Z,8.42
2023-03-20T05:21:20.592Z,8.45
2023-03-20T05:23:47.359Z,8.50
2023-03-20T05:26:14.460Z,8.59
2023-03-20T05:28:41.228Z,8.63
2023-03-20T05:31:08.465Z,8.67
2023-03-20T05:33:37.956Z,8.66
2023-03-20T05:36:06.137Z,8.74
2023-03-20T05:38:33.493Z,8.73
2023-03-20T05:41:01.562Z,8.61
2023-03-20T05:43:29.143Z,8.57
2023-03-20T05:45:56.667Z,8.53
2023-03-20T05:48:24.244Z,8.48
2023-03-20T05:50:51.507Z,8.46
2023-03-20T05:53:18.382Z,8.47
2023-03-20T05:55:45.413Z,8.46
2023-03-20T05:58:12.617Z,8.50
2023-03-20T06:00:39.866Z,8.61
2023-03-20T06:03:06.948Z,8.72
2023-03-20T06:05:35.440Z,8.75
2023-03-20T06:08:04.009Z,8.76
2023-03-20T06:10:31.573Z,8.80
2023-03-20T06:13:01.130Z,8.83
2023-03-20T06:15:28.890Z,8.80
2023-03-20T06:17:56.601Z,8.82
2023-03-20T06:20:24.179Z,8.80
2023-03-20T06:22:51.753Z,8.89
2023-03-20T06:25:19.665Z,9.14
2023-03-20T06:27:48.010Z,9.10
2023-03-20T06:30:16.429Z,9.02
2023-03-20T06:32:43.882Z,8.99
2023-03-20T06:35:11.444Z,9.07
2023-03-20T06:37:38.346Z,9.08
2023-03-20T06:40:06.616Z,9.18
2023-03-20T06:42:33.610Z,9.30
2023-03-20T06:45:00.620Z,9.36
2023-03-20T06:47:27.643Z,9.39
2023-03-20T06:49:54.495Z,9.42
2023-03-20T06:52:25.128Z,9.43
2023-03-20T06:54:52.140Z,9.46
2023-03-20T06:57:20.033Z,9.54
2023-03-20T06:59:47.729Z,9.59
2023-03-20T07:02:14.715Z,9.58
2023-03-20T07:04:41.948Z,9.63
2023-03-20T07:07:09.474Z,9.60
2023-03-20T07:09:36.907Z,9.57
2023-03-20T07:12:04.732Z,9.47
2023-03-20T07:14:31.690Z,9.48
2023-03-20T07:16:58.637Z,9.51
2023-03-20T07:19:26.018Z,9.59
2023-03-20T07:22:02.168Z,9.65
2023-03-20T07:24:28.955Z,9.65
2023-03-20T07:26:56.427Z,9.75
2023-03-20T07:29:23.336Z,9.82
2023-03-20T07:31:50.561Z,9.93
2023-03-20T07:34:17.867Z,9.94
2023-03-20T07:36:44.820Z,10.05
2023-03-20T07:39:14.235Z,10.19
2023-03-20T07:41:41.549Z,10.30
2023-03-20T07:44:10.339Z,10.44
2023-03-20T07:46:37.188Z,10.62
2023-03-20T07:49:03.919Z,10.70
2023-03-20T07:51:30.692Z,10.72
2023-03-20T07:53:57.446Z,10.74
2023-03-20T07:56:24.328Z,10.73
2023-03-20T07:58:51.143Z,10.77
2023-03-20T08:01:18.002Z,10.82
2023-03-20T08:03:44.984Z,10.82
2023-03-20T08:06:11.938Z,10.87
2023-03-20T08:08:39.129Z,10.93
2023-03-20T08:11:06.576Z,10.97
2023-03-20T08:13:33.437Z,11.02
2023-03-20T08:16:01.236Z,11.10
2023-03-20T08:18:28.199Z,11.15
2023-03-20T08:20:55.391Z,11.31
2023-03-20T08:23:22.408Z,11.47
2023-03-20T08:25:51.257Z,11.71
2023-03-20T08:28:18.843Z,11.97
2023-03-20T08:30:46.036Z,12.06
2023-03-20T08:33:15.651Z,11.87
2023-03-20T08:35:43.595Z,11.76
2023-03-20T08:38:13.855Z,11.69
2023-03-20T08:40:42.151Z,11.75
2023-03-20T08:43:09.347Z,11.99
2023-03-20T08:45:36.585Z,12.33
2023-03-20T08:48:03.902Z,12.52
2023-03-20T08:50:31.520Z,12.62
2023-03-20T08:52:58.477Z,12.83
2023-03-20T08:55:27.814Z,12.97
2023-03-20T08:57:57.159Z,13.05
2023-03-20T09:00:24.964Z,13.02
2023-03-20T09:02:52.163Z,12.83
2023-03-20T09:05:19.044Z,12.63
2023-03-20T09:07:46.156Z,12.78
2023-03-20T09:10:13.107Z,12.87
2023-03-20T09:12:40.047Z,12.98
2023-03-20T09:15:08.045Z,12.99
2023-03-20T09:17:35.210Z,12.98
2023-03-20T09:20:02.195Z,13.05
2023-03-20T09:22:29.008Z,13.02
2023-03-20T09:24:55.761Z,13.06
2023-03-20T09:27:22.678Z,13.18
2023-03-20T09:29:49.744Z,13.15
2023-03-20T09:32:16.655Z,13.11
2023-03-20T09:34:43.618Z,13.26
2023-03-20T09:37:10.643Z,13.67
2023-03-20T09:39:38.470Z,14.08
2023-03-20T09:42:35.730Z,14.54
2023-03-20T09:45:45.593Z,15.24
2023-03-20T09:48:53.125Z,15.22
2023-03-20T09:51:43.268Z,15.16
2023-03-20T09:54:27.931Z,14.90
2023-03-20T09:56:57.601Z,14.63
2023-03-20T09:59:27.548Z,14.50
2023-03-20T10:02:19.663Z,14.37
2023-03-20T10:04:49.183Z,14.19
2023-03-20T10:07:18.853Z,14.01
2023-03-20T10:09:46.035Z,13.80
2023-03-20T10:12:54.119Z,14.00
2023-03-20T10:15:52.876Z,14.13
2023-03-20T10:18:29.641Z,14.17
2023-03-20T10:21:18.457Z,13.92
2023-03-20T10:24:04.520Z,13.97
2023-03-20T10:26:35.996Z,14.42
2023-03-20T10:29:14.125Z,14.74
2023-03-20T10:32:15.610Z,14.97
2023-03-20T10:34:55.446Z,14.90
2023-03-20T10:37:36.695Z,14.65
2023-03-20T10:40:41.558Z,14.48
2023-03-20T10:43:23.413Z,14.85
2023-03-20T10:46:21.741Z,14.75
2023-03-20T10:49:14.230Z,14.84
2023-03-20T10:51:56.157Z,14.45
2023-03-20T10:54:40.525Z,14.43
2023-03-20T10:57:26.076Z,14.98
2023-03-20T10:59:57.850Z,15.73
2023-03-20T11:02:30.568Z,16.11
2023-03-20T11:05:02.656Z,16.11
2023-03-20T11:07:37.653Z,15.83
2023-03-20T11:10:04.680Z,15.53
2023-03-20T11:12:52.217Z,15.27
2023-03-20T11:15:29.764Z,15.08
2023-03-20T11:18:04.100Z,15.22
2023-03-20T11:20:45.327Z,15.58
2023-03-20T11:23:19.426Z,16.32
2023-03-20T11:25:57.324Z,16.27
2023-03-20T11:28:34.879Z,16.15
2023-03-20T11:31:12.431Z,16.34
2023-03-20T11:33:44.518Z,16.32
2023-03-20T11:36:33.225Z,16.63
2023-03-20T11:39:14.254Z,16.37
2023-03-20T11:41:56.532Z,16.33
2023-03-20T11:44:36.853Z,16.54
2023-03-20T11:47:12.094Z,16.89
2023-03-20T11:49:58.840Z,17.75
2023-03-20T11:52:33.593Z,18.17
2023-03-20T11:55:12.219Z,17.84
2023-03-20T11:57:42.622Z,17.38
2023-03-20T12:00:20.350Z,17.39
2023-03-20T12:02:47.665Z,17.91
2023-03-20T12:05:36.792Z,17.91
2023-03-20T12:08:15.926Z,17.46
2023-03-20T12:10:53.068Z,17.25
2023-03-20T12:13:33.221Z,17.45
2023-03-20T12:16:11.656Z,17.39
2023-03-20T12:18:48.500Z,17.41
2023-03-20T12:21:43.503Z,17.24
2023-03-20T12:24:38.778Z,17.59
2023-03-20T12:27:29.646Z,17.72
2023-03-20T12:30:16.812Z,17.33
2023-03-20T12:33:07.988Z,17.45
2023-03-20T12:35:47.306Z,17.32
2023-03-20T12:38:31.785Z,17.03
2023-03-20T12:41:26.347Z,16.78
2023-03-20T12:44:06.784Z,16.70
2023-03-20T12:47:16.920Z,17.39
2023-03-20T12:50:19.030Z,18.03
2023-03-20T12:53:08.896Z,17.54
2023-03-20T12:56:03.893Z,18.55
2023-03-20T12:59:08.432Z,20.10
2023-03-20T13:02:12.432Z,18.51
2023-03-20T13:05:08.181Z,17.27
2023-03-20T13:08:01.975Z,17.23
2023-03-20T13:10:53.485Z,16.70
2023-03-20T13:13:46.548Z,16.92
2023-03-20T13:16:18.440Z,18.37
2023-03-20T13:19:02.780Z,19.17
2023-03-20T13:21:47.143Z,18.22
2023-03-20T13:24:33.573Z,17.76
2023-03-20T13:27:31.593Z,17.33
2023-03-20T13:30:20.098Z,18.88
2023-03-20T13:33:36.184Z,18.88
2023-03-20T13:36:34.051Z,17.87
2023-03-20T13:39:18.384Z,17.66
2023-03-20T13:41:49.108Z,17.63
2023-03-20T13:44:21.091Z,17.60
2023-03-20T13:46:54.196Z,17.17
2023-03-20T13:49:50.594Z,17.09
2023-03-20T13:53:11.525Z,17.28
2023-03-20T13:55:52.259Z,17.43
2023-03-20T13:58:52.820Z,17.73
2023-03-20T14:02:05.091Z,17.42
2023-03-20T14:04:34.462Z,17.39
2023-03-20T14:07:02.003Z,17.33
2023-03-20T14:09:36.504Z,17.20
2023-03-20T14:12:08.654Z,16.84
2023-03-20T14:14:55.242Z,16.55
2023-03-20T14:17:29.503Z,16.09
2023-03-20T14:20:09.194Z,15.95
2023-03-20T14:22:40.928Z,16.05
2023-03-20T14:25:20.773Z,15.76
2023-03-20T14:27:58.349Z,15.61
2023-03-20T14:30:31.270Z,15.50
2023-03-20T14:33:05.319Z,15.46
2023-03-20T14:35:39.481Z,15.33
2023-03-20T14:38:35.845Z,15.42
2023-03-20T14:41:12.004Z,15.37
2023-03-20T14:43:50.794Z,15.34
2023-03-20T14:46:42.575Z,15.49
2023-03-20T14:49:42.875Z,15.52
2023-03-20T14:52:38.885Z,15.50
2023-03-20T14:55:52.303Z,15.38
2023-03-20T14:58:43.449Z,15.21
2023-03-20T15:01:21.647Z,15.05
2023-03-20T15:04:07.116Z,15.10
2023-03-20T15:06:54.330Z,15.20
2023-03-20T15:09:25.390Z,15.19
2023-03-20T15:11:53.756Z,15.05
2023-03-20T15:14:29.535Z,14.96
2023-03-20T15:17:03.110Z,14.72
2023-03-20T15:19:30.682Z,14.73
2023-03-20T15:21:57.539Z,14.74
2023-03-20T15:24:29.841Z,14.75
2023-03-20T15:27:01.906Z,14.46
2023-03-20T15:29:32.955Z,14.48
2023-03-20T15:32:13.977Z,14.47
2023-03-20T15:34:42.945Z,14.53
2023-03-20T15:37:23.669Z,14.59
2023-03-20T15:39:56.644Z,14.62
2023-03-20T15:42:26.696Z,14.47
2023-03-20T15:44:55.873Z,14.37
2023-03-20T15:47:26.093Z,14.29
2023-03-20T15:50:02.402Z,14.32
2023-03-20T15:52:37.082Z,14.23
2023-03-20T15:55:16.642Z,14.14
2023-03-20T15:57:47.134Z,14.06
2023-03-20T16:00:26.481Z,14.01
2023-03-20T16:02:53.719Z,13.95
2023-03-20T16:05:25.915Z,13.91
2023-03-20T16:07:53.451Z,13.97
2023-03-20T16:10:36.147Z,14.00
2023-03-20T16:13:07.213Z,13.94
2023-03-20T16:15:34.925Z,13.93
2023-03-20T16:18:05.642Z,13.87
2023-03-20T16:20:47.215Z,13.86
2023-03-20T16:23:25.817Z,13.89
2023-03-20T16:26:01.038Z,13.89
2023-03-20T16:28:29.148Z,13.81
2023-03-20T16:31:15.926Z,13.80
2023-03-20T16:33:44.820Z,13.79
2023-03-20T16:36:25.444Z,13.77
2023-03-20T16:39:21.904Z,13.65
2023-03-20T16:42:17.651Z,13.59
2023-03-20T16:44:44.635Z,13.59
2023-03-20T16:47:21.260Z,13.52
2023-03-20T16:50:20.208Z,13.47
2023-03-20T16:53:29.703Z,13.51
2023-03-20T16:55:59.160Z,13.42
2023-03-20T16:58:33.145Z,13.40
2023-03-20T17:01:06.400Z,13.39
2023-03-20T17:03:50.556Z,13.38
2023-03-20T17:06:23.160Z,13.38
2023-03-20T17:09:01.546Z,13.37
2023-03-20T17:11:35.970Z,13.35
2023-03-20T17:14:04.432Z,13.31
2023-03-20T17:16:33.293Z,13.28
2023-03-20T17:19:23.972Z,13.30
2023-03-20T17:21:51.904Z,13.29
2023-03-20T17:24:19.081Z,13.24
2023-03-20T17:26:55.041Z,13.17
2023-03-20T17:29:22.101Z,13.14
2023-03-20T17:31:49.024Z,13.15
2023-03-20T17:34:15.963Z,13.20
2023-03-20T17:36:43.165Z,13.15
2023-03-20T17:39:19.199Z,13.05
2023-03-20T17:41:47.277Z,12.98
2023-03-20T17:44:14.240Z,13.02
2023-03-20T17:46:56.863Z,13.01
2023-03-20T17:49:27.256Z,13.00
2023-03-20T17:51:56.883Z,13.01
2023-03-20T17:54:23.779Z,13.04
2023-03-20T17:56:50.603Z,13.06
2023-03-20T17:59:17.543Z,12.99
2023-03-20T18:01:44.943Z,12.98
2023-03-20T18:04:12.019Z,12.95
2023-03-20T18:06:38.850Z,12.94
2023-03-20T18:09:08.968Z,12.92
2023-03-20T18:11:35.872Z,12.85
2023-03-20T18:14:02.683Z,12.80
2023-03-20T18:16:29.550Z,12.83
2023-03-20T18:18:57.017Z,12.86
2023-03-20T18:21:24.152Z,12.81
2023-03-20T18:23:51.246Z,12.73
2023-03-20T18:26:27.125Z,12.72
2023-03-20T18:28:56.109Z,12.68
2023-03-20T18:31:23.325Z,12.61
2023-03-20T18:33:52.775Z,12.58
2023-03-20T18:36:23.572Z,12.62
2023-03-20T18:38:51.977Z,12.64
2023-03-20T18:41:18.874Z,12.62
2023-03-20T18:43:48.932Z,12.62
2023-03-20T18:46:19.029Z,12.62
2023-03-20T18:48:46.729Z,12.59
2023-03-20T18:51:14.782Z,12.51
2023-03-20T18:53:42.689Z,12.44
2023-03-20T18:56:26.283Z,12.47
2023-03-20T18:58:54.181Z,12.48
2023-03-20T19:01:21.807Z,12.50
2023-03-20T19:03:49.466Z,12.38
2023-03-20T19:06:21.078Z,12.29
2023-03-20T19:08:50.084Z,12.28
2023-03-20T19:11:21.235Z,12.27
2023-03-20T19:13:52.064Z,12.26
2023-03-20T19:16:23.215Z,12.27
2023-03-20T19:18:55.297Z,12.26
2023-03-20T19:21:26.342Z,12.28
2023-03-20T19:23:56.542Z,12.29
2023-03-20T19:26:25.967Z,12.30
2023-03-20T19:28:57.123Z,12.30
2023-03-20T19:31:25.520Z,12.20
2023-03-20T19:33:53.601Z,12.07
2023-03-20T19:36:27.923Z,11.88
2023-03-20T19:38:56.645Z,11.81
2023-03-20T19:41:23.829Z,11.75
2023-03-20T19:43:55.127Z,11.75
2023-03-20T19:46:41.791Z,11.78
2023-03-20T19:49:19.933Z,11.78
2023-03-20T19:51:48.838Z,11.76
2023-03-20T19:54:16.703Z,11.75
2023-03-20T19:56:43.561Z,11.72
2023-03-20T19:59:10.512Z,11.62
2023-03-20T20:01:37.378Z,11.54
2023-03-20T20:04:04.855Z,11.51
2023-03-20T20:06:33.119Z,11.53
2023-03-20T20:09:01.685Z,11.44
2023-03-20T20:11:28.884Z,11.27
2023-03-20T20:14:14.437Z,11.30
2023-03-20T20:16:43.121Z,11.41
2023-03-20T20:19:10.820Z,11.46
2023-03-20T20:24:24.911Z,11.30
2023-03-20T20:27:14.764Z,11.27
2023-03-20T20:29:43.085Z,11.26
2023-03-20T20:32:09.993Z,11.20
2023-03-20T20:40:16.945Z,11.21
2023-03-20T20:42:47.538Z,11.21
2023-03-20T20:45:15.407Z,11.20
2023-03-20T20:47:49.598Z,11.19
2023-03-20T20:50:20.778Z,11.17
2023-03-20T20:52:48.724Z,11.15
2023-03-20T20:55:22.821Z,11.12
2023-03-20T20:58:04.285Z,11.07
2023-03-20T21:00:47.277Z,11.06
2023-03-20T21:03:17.607Z,11.10
2023-03-20T21:05:48.060Z,11.18
2023-03-20T21:08:16.415Z,11.14
2023-03-20T21:10:45.840Z,11.10
2023-03-20T21:13:15.903Z,11.02
2023-03-20T21:15:45.244Z,10.94
2023-03-20T21:18:12.171Z,10.89
2023-03-20T21:20:39.032Z,10.95
2023-03-20T21:23:06.314Z,10.94
2023-03-20T21:25:45.575Z,10.91
2023-03-20T21:28:13.942Z,10.92
2023-03-20T21:30:51.072Z,10.97
2023-03-20T21:33:30.162Z,10.81
2023-03-20T21:35:57.106Z,10.77
2023-03-20T21:41:12.491Z,10.82
2023-03-20T21:43:39.693Z,10.86
2023-03-20T21:46:45.239Z,10.83
2023-03-20T21:58:03.464Z,10.78
2023-03-20T22:00:57.429Z,10.74
2023-03-20T22:02:55.403Z,10.73
2023-03-20T22:11:45.004Z,10.73
2023-03-20T22:14:36.058Z,10.64
2023-03-20T22:17:31.367Z,10.61
2023-03-20T22:28:22.380Z,10.50
2023-03-20T22:31:22.589Z,10.49
2023-03-20T22:36:49.780Z,10.43
2023-03-20T22:45:00.533Z,10.50
2023-03-20T22:47:14.208Z,10.45
2023-03-20T22:49:42.634Z,10.42
2023-03-20T22:52:24.461Z,10.42
2023-03-20T22:54:53.755Z,10.47
2023-03-20T22:57:20.722Z,10.45
2023-03-20T22:59:47.493Z,10.44
2023-03-20T23:02:15.911Z,10.49
2023-03-20T23:04:42.698Z,10.39
2023-03-20T23:07:09.505Z,10.38
2023-03-20T23:09:36.278Z,10.38
2023-03-20T23:12:03.695Z,10.45
2023-03-20T23:14:36.261Z,10.51
2023-03-20T23:17:09.924Z,10.55
2023-03-20T23:19:46.890Z,10.48
2023-03-20T23:22:15.834Z,10.38
2023-03-20T23:24:42.782Z,10.39
2023-03-20T23:27:09.598Z,10.43
2023-03-20T23:29:36.403Z,10.45
2023-03-20T23:32:03.335Z,10.42
2023-03-20T23:34:30.240Z,10.38
2023-03-20T23:36:57.077Z,10.24
2023-03-20T23:39:24.252Z,10.27
2023-03-20T23:42:10.210Z,10.30
2023-03-20T23:44:44.139Z,10.27
2023-03-20T23:47:20.359Z,10.22
2023-03-20T23:49:47.895Z,10.22
2023-03-20T23:52:15.623Z,10.20
2023-03-20T23:54:42.593Z,10.25
2023-03-20T23:57:09.937Z,10.15
2023-03-20T23:59:38.471Z,10.13
